Time;durP1;ratioP1;P1;durP2;ratioP2;P2;SDS_P1;SDS_P2;PMS_P1;PMS_P2;Temp;Humidity;BMP_temperature;BMP_pressure;BME280_temperature;BME280_humidity;BME280_pressure;Samples;Min_cycle;Max_cycle;Signal;HPM_P1;HPM_P2
2022/09/15 00:00:52;;;;;;;;;;;18.70;64.30;;;;;;6242540;23;19903;-89
2022/09/15 00:03:18;;;;;;;;;;;18.70;64.20;;;;;;6242446;22;19919;-88
2022/09/15 00:05:43;;;;;;;;;;;18.60;64.10;;;;;;6242288;22;19903;-91
2022/09/15 00:08:09;;;;;;;;;;;18.60;64.00;;;;;;6242617;22;19923;-88
2022/09/15 00:10:34;;;;;;;;;;;18.60;63.80;;;;;;6241236;23;19926;-86
2022/09/15 00:13:00;;;;;;;;;;;18.50;63.70;;;;;;6242282;22;19915;-88
2022/09/15 00:15:26;;;;;;;;;;;18.50;63.60;;;;;;6240264;23;20362;-87
2022/09/15 00:17:51;;;;;;;;;;;18.50;63.50;;;;;;6242173;22;19911;-87
2022/09/15 00:20:18;;;;;;;;;;;18.40;63.40;;;;;;6240345;23;19911;-86
2022/09/15 00:22:43;;;;;;;;;;;18.40;63.40;;;;;;6240018;22;19990;-90
2022/09/15 00:25:09;;;;;;;;;;;18.30;63.20;;;;;;6239800;23;19974;-90
2022/09/15 00:27:35;;;;;;;;;;;18.30;63.10;;;;;;6242893;22;19926;-89
2022/09/15 00:30:00;;;;;;;;;;;18.30;63.00;;;;;;6242507;22;19904;-87
2022/09/15 00:32:26;;;;;;;;;;;18.30;63.10;;;;;;6242701;22;19922;-88
2022/09/15 00:34:52;;;;;;;;;;;18.20;63.20;;;;;;6240820;22;19903;-89
2022/09/15 00:37:17;;;;;;;;;;;18.20;63.40;;;;;;6239506;23;20417;-89
2022/09/15 00:39:43;;;;;;;;;;;18.20;63.60;;;;;;6241425;22;19919;-86
2022/09/15 00:42:15;;;;;;;;;;;18.30;63.90;;;;;;6240751;23;19930;-86
2022/09/15 00:44:46;;;;;;;;;;;18.30;64.00;;;;;;6242492;22;20264;-91
2022/09/15 00:47:12;;;;;;;;;;;18.30;64.20;;;;;;6240215;23;20235;-91
2022/09/15 00:49:38;;;;;;;;;;;18.40;64.20;;;;;;6242545;22;19910;-89
2022/09/15 00:52:09;;;;;;;;;;;18.50;64.30;;;;;;6242835;22;19904;-90
2022/09/15 00:54:37;;;;;;;;;;;18.50;64.30;;;;;;6240259;22;19918;-90
2022/09/15 00:57:05;;;;;;;;;;;18.50;64.40;;;;;;6240770;23;20304;-90
2022/09/15 00:59:33;;;;;;;;;;;18.50;64.30;;;;;;6242062;22;20293;-89
2022/09/15 01:02:06;;;;;;;;;;;18.50;64.10;;;;;;6242841;23;19904;-86
2022/09/15 01:04:32;;;;;;;;;;;18.50;64.20;;;;;;6241487;22;19915;-85
2022/09/15 01:07:00;;;;;;;;;;;18.50;64.40;;;;;;6241445;23;20003;-88
2022/09/15 01:09:25;;;;;;;;;;;18.60;64.40;;;;;;6242474;22;19923;-89
2022/09/15 01:11:51;;;;;;;;;;;18.60;64.30;;;;;;6242920;23;19907;-86
2022/09/15 01:14:16;;;;;;;;;;;18.50;64.30;;;;;;6241777;22;20291;-88
2022/09/15 01:16:45;;;;;;;;;;;18.60;64.20;;;;;;6241733;23;19914;-86
2022/09/15 01:19:31;;;;;;;;;;;18.60;64.00;;;;;;6242754;22;19927;-89
2022/09/15 01:22:03;;;;;;;;;;;18.50;64.00;;;;;;6240278;23;19957;-88
2022/09/15 01:24:49;;;;;;;;;;;18.40;64.00;;;;;;6242117;22;19912;-87
2022/09/15 01:27:33;;;;;;;;;;;18.40;63.80;;;;;;6240818;23;19912;-86
2022/09/15 01:30:09;;;;;;;;;;;18.30;63.30;;;;;;6241644;22;19911;-89
2022/09/15 01:35:33;;;;;;;;;;;18.10;62.50;;;;;;6241041;23;19966;-89
2022/09/15 01:38:06;;;;;;;;;;;18.00;62.50;;;;;;6265607;22;20299;-86
2022/09/15 01:40:34;;;;;;;;;;;17.90;62.70;;;;;;6239793;23;20441;-90
2022/09/15 01:43:00;;;;;;;;;;;17.80;62.70;;;;;;6239409;22;19912;-89
2022/09/15 01:45:28;;;;;;;;;;;17.80;62.50;;;;;;6241006;22;20030;-86
2022/09/15 01:47:55;;;;;;;;;;;17.70;62.40;;;;;;6241094;22;19978;-89
2022/09/15 01:50:27;;;;;;;;;;;17.70;62.30;;;;;;6240400;22;19946;-88
2022/09/15 01:52:55;;;;;;;;;;;17.50;62.30;;;;;;6241618;22;19994;-90
2022/09/15 01:55:22;;;;;;;;;;;17.50;62.20;;;;;;6241000;22;19915;-89
2022/09/15 01:57:48;;;;;;;;;;;17.40;62.30;;;;;;6242112;22;19994;-90
2022/09/15 02:00:13;;;;;;;;;;;17.40;62.50;;;;;;6242859;23;19942;-88
2022/09/15 02:02:47;;;;;;;;;;;17.30;62.60;;;;;;6242442;23;19918;-89
2022/09/15 02:05:14;;;;;;;;;;;17.30;62.80;;;;;;6240291;23;20347;-89
2022/09/15 02:07:43;;;;;;;;;;;17.30;62.90;;;;;;6241318;23;20372;-87
2022/09/15 02:10:13;;;;;;;;;;;17.30;62.80;;;;;;6244368;22;19907;-88
2022/09/15 02:12:49;;;;;;;;;;;17.20;62.60;;;;;;6248973;23;19912;-85
2022/09/15 02:15:19;;;;;;;;;;;17.20;62.50;;;;;;6241496;22;20216;-86
2022/09/15 02:17:49;;;;;;;;;;;17.10;62.50;;;;;;6241918;22;20239;-87
2022/09/15 02:20:34;;;;;;;;;;;17.10;62.30;;;;;;6240974;22;19918;-86
2022/09/15 02:23:07;;;;;;;;;;;17.00;62.20;;;;;;6239685;22;20546;-89
2022/09/15 02:25:35;;;;;;;;;;;16.90;62.20;;;;;;6238273;23;19935;-88
2022/09/15 02:28:03;;;;;;;;;;;16.80;62.20;;;;;;6239377;22;19924;-86
2022/09/15 02:30:31;;;;;;;;;;;16.80;62.10;;;;;;6240905;22;19993;-89
2022/09/15 02:33:02;;;;;;;;;;;16.70;62.10;;;;;;6239285;22;20348;-88
2022/09/15 02:35:29;;;;;;;;;;;16.70;62.00;;;;;;6239154;23;19910;-90
2022/09/15 02:37:55;;;;;;;;;;;16.60;62.00;;;;;;6239273;22;19943;-89
2022/09/15 02:40:21;;;;;;;;;;;16.60;62.40;;;;;;6240461;22;20747;-87
2022/09/15 02:42:51;;;;;;;;;;;16.60;62.60;;;;;;6240454;22;19912;-85
2022/09/15 02:45:18;;;;;;;;;;;16.50;62.60;;;;;;6242433;22;19904;-90
2022/09/15 02:47:44;;;;;;;;;;;16.50;62.30;;;;;;6239198;22;19919;-90
2022/09/15 02:50:10;;;;;;;;;;;16.50;62.10;;;;;;6239729;23;19931;-90
2022/09/15 02:52:36;;;;;;;;;;;16.40;62.20;;;;;;6240564;22;19912;-88
2022/09/15 02:55:01;;;;;;;;;;;16.40;62.50;;;;;;6239296;22;19990;-91
2022/09/15 02:57:27;;;;;;;;;;;16.30;62.40;;;;;;6241989;23;19911;-88
2022/09/15 03:02:37;;;;;;;;;;;16.20;62.10;;;;;;6240570;23;19918;-85
2022/09/15 03:05:02;;;;;;;;;;;16.20;62.10;;;;;;6238688;22;19963;-85
2022/09/15 03:07:28;;;;;;;;;;;16.10;62.10;;;;;;6241290;23;19927;-89
2022/09/15 03:09:54;;;;;;;;;;;16.10;62.10;;;;;;6239298;22;19907;-86
2022/09/15 03:12:19;;;;;;;;;;;16.10;62.20;;;;;;6240634;23;19935;-89
2022/09/15 03:14:45;;;;;;;;;;;16.20;62.50;;;;;;6241641;22;19951;-86
2022/09/15 03:17:12;;;;;;;;;;;16.30;63.10;;;;;;6238553;23;20230;-85
2022/09/15 03:19:37;;;;;;;;;;;16.30;63.50;;;;;;6238215;22;19912;-86
2022/09/15 03:22:03;;;;;;;;;;;16.40;63.80;;;;;;6239469;23;19918;-86
2022/09/15 03:24:28;;;;;;;;;;;16.60;64.00;;;;;;6240622;22;19919;-90
2022/09/15 03:26:53;;;;;;;;;;;16.70;64.40;;;;;;6238802;23;19962;-86
2022/09/15 03:29:19;;;;;;;;;;;16.80;64.60;;;;;;6239774;22;19935;-86
2022/09/15 03:31:44;;;;;;;;;;;16.90;64.50;;;;;;6240938;23;19923;-87
2022/09/15 03:34:10;;;;;;;;;;;17.00;64.70;;;;;;6238457;22;19918;-87
2022/09/15 03:36:35;;;;;;;;;;;17.20;64.80;;;;;;6238946;23;19995;-86
2022/09/15 03:39:01;;;;;;;;;;;17.30;64.80;;;;;;6240953;22;19915;-89
2022/09/15 03:41:26;;;;;;;;;;;17.30;64.80;;;;;;6241784;22;20196;-86
2022/09/15 03:43:52;;;;;;;;;;;17.40;64.70;;;;;;6240009;22;19915;-86
2022/09/15 03:46:18;;;;;;;;;;;17.50;64.70;;;;;;6238998;23;19946;-89
2022/09/15 03:48:43;;;;;;;;;;;17.70;64.70;;;;;;6244263;22;19990;-88
2022/09/15 03:51:09;;;;;;;;;;;17.80;64.70;;;;;;6238741;23;19927;-89
2022/09/15 03:53:36;;;;;;;;;;;17.80;64.60;;;;;;6239505;22;19908;-89
2022/09/15 03:56:11;;;;;;;;;;;17.90;64.60;;;;;;6238295;23;19908;-88
2022/09/15 03:58:36;;;;;;;;;;;17.90;64.60;;;;;;6240164;22;19908;-87
2022/09/15 04:01:02;;;;;;;;;;;18.00;64.80;;;;;;6239812;22;19915;-89
2022/09/15 04:03:28;;;;;;;;;;;18.10;64.80;;;;;;6240118;22;19914;-88
2022/09/15 04:05:53;;;;;;;;;;;18.20;64.80;;;;;;6237746;23;20089;-89
2022/09/15 04:08:18;;;;;;;;;;;18.20;64.90;;;;;;6240747;22;19915;-90
2022/09/15 04:10:44;;;;;;;;;;;18.30;64.80;;;;;;6240719;23;19907;-86
2022/09/15 04:13:10;;;;;;;;;;;18.30;64.80;;;;;;6238832;22;19907;-88
2022/09/15 04:15:35;;;;;;;;;;;18.40;64.90;;;;;;6238361;23;19908;-89
2022/09/15 04:18:00;;;;;;;;;;;18.40;64.90;;;;;;6238385;22;19911;-87
2022/09/15 04:20:26;;;;;;;;;;;18.40;64.90;;;;;;6237964;23;19916;-87
2022/09/15 04:22:51;;;;;;;;;;;18.50;64.90;;;;;;6238094;22;19915;-89
2022/09/15 04:25:17;;;;;;;;;;;18.50;65.00;;;;;;6237958;23;19941;-88
2022/09/15 04:27:43;;;;;;;;;;;18.60;65.10;;;;;;6240559;22;20308;-90
2022/09/15 04:30:09;;;;;;;;;;;18.60;65.10;;;;;;6238688;23;20328;-89
2022/09/15 04:32:34;;;;;;;;;;;18.60;65.00;;;;;;6238243;23;19912;-88
2022/09/15 04:35:00;;;;;;;;;;;18.70;65.10;;;;;;6240058;22;19904;-87
2022/09/15 04:37:25;;;;;;;;;;;18.70;65.10;;;;;;6243236;22;19920;-87
2022/09/15 04:39:51;;;;;;;;;;;18.70;65.00;;;;;;6241424;22;19919;-87
2022/09/15 04:42:16;;;;;;;;;;;18.70;65.00;;;;;;6244383;23;19925;-89
2022/09/15 04:44:42;;;;;;;;;;;18.80;65.00;;;;;;6239981;22;19912;-89
2022/09/15 04:47:07;;;;;;;;;;;18.80;65.00;;;;;;6240269;23;20259;-88
2022/09/15 04:49:33;;;;;;;;;;;18.80;64.90;;;;;;6242689;22;19904;-86
2022/09/15 04:51:58;;;;;;;;;;;18.80;64.90;;;;;;6244434;23;20280;-85
2022/09/15 04:54:24;;;;;;;;;;;18.90;64.80;;;;;;6243131;22;19915;-91
2022/09/15 04:56:49;;;;;;;;;;;18.90;64.80;;;;;;6243292;23;19904;-87
2022/09/15 04:59:16;;;;;;;;;;;18.90;64.70;;;;;;6240459;22;19915;-88
2022/09/15 05:01:42;;;;;;;;;;;18.90;64.70;;;;;;6239304;23;19914;-89
2022/09/15 05:04:07;;;;;;;;;;;19.00;64.60;;;;;;6238255;22;19966;-88
2022/09/15 05:06:33;;;;;;;;;;;19.00;64.60;;;;;;6241481;23;19912;-88
2022/09/15 05:08:59;;;;;;;;;;;19.00;64.50;;;;;;6243827;22;20331;-87
2022/09/15 05:11:25;;;;;;;;;;;19.00;64.50;;;;;;6240012;23;19912;-87
2022/09/15 05:13:50;;;;;;;;;;;19.00;64.40;;;;;;6239614;22;19911;-85
2022/09/15 05:16:17;;;;;;;;;;;19.00;64.50;;;;;;6239842;23;19970;-87
2022/09/15 05:18:44;;;;;;;;;;;19.00;64.50;;;;;;6239572;22;19958;-89
2022/09/15 05:21:10;;;;;;;;;;;19.00;64.50;;;;;;6239886;23;19912;-86
2022/09/15 05:23:38;;;;;;;;;;;19.00;64.40;;;;;;6241673;22;19974;-86
2022/09/15 05:26:05;;;;;;;;;;;19.10;64.50;;;;;;6242732;23;20244;-86
2022/09/15 05:28:32;;;;;;;;;;;19.00;64.40;;;;;;6242044;22;19966;-85
2022/09/15 05:30:57;;;;;;;;;;;19.10;64.40;;;;;;6243019;22;20109;-88
2022/09/15 05:33:23;;;;;;;;;;;19.10;64.40;;;;;;6241255;22;19955;-88
2022/09/15 05:35:50;;;;;;;;;;;19.10;64.40;;;;;;6243969;23;19904;-89
2022/09/15 05:38:15;;;;;;;;;;;19.20;64.40;;;;;;6240822;22;19962;-88
2022/09/15 05:40:41;;;;;;;;;;;19.20;64.40;;;;;;6243187;23;19907;-87
2022/09/15 05:43:06;;;;;;;;;;;19.20;64.50;;;;;;6243696;22;20438;-87
2022/09/15 05:45:32;;;;;;;;;;;19.30;64.50;;;;;;6240798;23;19912;-85
2022/09/15 05:47:57;;;;;;;;;;;19.30;64.40;;;;;;6243147;22;19923;-90
2022/09/15 05:50:23;;;;;;;;;;;19.30;64.50;;;;;;6240386;23;19907;-87
2022/09/15 05:52:51;;;;;;;;;;;19.40;64.60;;;;;;6242450;22;19911;-89
2022/09/15 05:55:17;;;;;;;;;;;19.50;64.60;;;;;;6242656;23;19903;-87
2022/09/15 05:57:43;;;;;;;;;;;19.50;64.60;;;;;;6240610;22;19974;-90
2022/09/15 06:00:09;;;;;;;;;;;19.60;64.70;;;;;;6241332;23;20229;-90
2022/09/15 06:02:35;;;;;;;;;;;19.70;64.70;;;;;;6240606;23;19918;-88
2022/09/15 06:05:01;;;;;;;;;;;19.80;64.70;;;;;;6240884;22;19903;-88
2022/09/15 06:07:27;;;;;;;;;;;19.80;64.60;;;;;;6240187;23;20258;-87
2022/09/15 06:09:53;;;;;;;;;;;19.80;64.60;;;;;;6242710;22;20356;-91
2022/09/15 06:12:18;;;;;;;;;;;19.90;64.50;;;;;;6240362;23;19938;-88
2022/09/15 06:14:46;;;;;;;;;;;19.90;64.40;;;;;;6239854;22;19904;-89
2022/09/15 06:17:11;;;;;;;;;;;19.90;64.30;;;;;;6235876;23;20224;-89
2022/09/15 06:19:36;;;;;;;;;;;19.90;64.20;;;;;;6237397;22;19938;-86
2022/09/15 06:22:02;;;;;;;;;;;19.90;64.20;;;;;;6239060;23;20314;-88
2022/09/15 06:24:28;;;;;;;;;;;19.90;64.00;;;;;;6238520;22;20037;-86
2022/09/15 06:26:53;;;;;;;;;;;19.90;64.10;;;;;;6236709;23;19955;-89
2022/09/15 06:29:19;;;;;;;;;;;19.90;64.10;;;;;;6236172;22;19923;-89
2022/09/15 06:31:44;;;;;;;;;;;19.90;64.20;;;;;;6238559;23;19934;-87
2022/09/15 06:34:10;;;;;;;;;;;20.00;64.20;;;;;;6235878;22;19938;-88
2022/09/15 06:36:36;;;;;;;;;;;20.00;64.20;;;;;;6236019;23;19939;-86
2022/09/15 06:39:02;;;;;;;;;;;20.10;64.20;;;;;;6262371;22;19994;-89
2022/09/15 06:41:28;;;;;;;;;;;20.20;64.10;;;;;;6238231;23;19946;-86
2022/09/15 06:43:54;;;;;;;;;;;20.20;64.30;;;;;;6235817;22;20327;-88
2022/09/15 06:46:21;;;;;;;;;;;20.30;64.30;;;;;;6236664;23;19911;-87
2022/09/15 06:48:47;;;;;;;;;;;20.40;64.40;;;;;;6238288;22;19930;-85
2022/09/15 06:51:13;;;;;;;;;;;20.50;64.40;;;;;;6238051;22;20487;-87
2022/09/15 06:53:38;;;;;;;;;;;20.50;64.30;;;;;;6236474;22;19915;-89
2022/09/15 06:56:05;;;;;;;;;;;20.50;64.10;;;;;;6236193;23;19914;-87
2022/09/15 06:58:31;;;;;;;;;;;20.60;64.10;;;;;;6261453;22;19915;-88
2022/09/15 07:01:01;;;;;;;;;;;20.60;64.00;;;;;;6238107;22;19922;-88
2022/09/15 07:03:26;;;;;;;;;;;20.70;64.10;;;;;;6261901;22;19915;-87
2022/09/15 07:05:52;;;;;;;;;;;20.80;64.00;;;;;;6238076;23;20299;-89
2022/09/15 07:08:17;;;;;;;;;;;20.80;64.00;;;;;;6238325;22;19923;-89
2022/09/15 07:10:43;;;;;;;;;;;20.80;64.00;;;;;;6241138;23;19908;-88
2022/09/15 07:13:09;;;;;;;;;;;20.90;64.00;;;;;;6238136;22;19995;-86
2022/09/15 07:15:35;;;;;;;;;;;21.00;64.00;;;;;;6236220;23;19986;-91
2022/09/15 07:18:01;;;;;;;;;;;21.00;64.10;;;;;;6236311;22;19926;-87
2022/09/15 07:20:26;;;;;;;;;;;21.20;64.10;;;;;;6244467;23;19916;-88
2022/09/15 07:22:51;;;;;;;;;;;21.30;64.10;;;;;;6237708;22;19934;-90
2022/09/15 07:25:17;;;;;;;;;;;21.30;64.20;;;;;;6238122;23;19908;-90
2022/09/15 07:27:42;;;;;;;;;;;21.50;64.20;;;;;;6238026;22;20010;-88
2022/09/15 07:30:09;;;;;;;;;;;21.60;64.20;;;;;;6236007;23;19935;-90
2022/09/15 07:32:34;;;;;;;;;;;21.70;64.20;;;;;;6235887;23;20337;-89
2022/09/15 07:35:00;;;;;;;;;;;21.80;64.10;;;;;;6238491;22;19908;-86
2022/09/15 07:37:26;;;;;;;;;;;21.90;64.20;;;;;;6237836;22;19922;-89
2022/09/15 07:39:51;;;;;;;;;;;22.00;64.10;;;;;;6237912;22;19908;-90
2022/09/15 07:42:17;;;;;;;;;;;22.10;63.80;;;;;;6237870;23;19962;-90
2022/09/15 07:44:43;;;;;;;;;;;22.20;63.90;;;;;;6238000;22;19911;-90
2022/09/15 07:47:08;;;;;;;;;;;22.20;63.80;;;;;;6236114;23;19922;-90
2022/09/15 07:49:34;;;;;;;;;;;22.30;63.70;;;;;;6237522;22;20210;-89
2022/09/15 07:51:59;;;;;;;;;;;22.40;63.70;;;;;;6237039;23;20316;-88
2022/09/15 07:54:25;;;;;;;;;;;22.50;63.60;;;;;;6237919;22;19947;-89
2022/09/15 07:56:50;;;;;;;;;;;22.60;63.80;;;;;;6238354;23;19908;-86
2022/09/15 07:59:16;;;;;;;;;;;22.70;63.80;;;;;;6238627;22;19923;-91
2022/09/15 08:01:41;;;;;;;;;;;22.70;63.80;;;;;;6237224;23;19907;-89
2022/09/15 08:04:06;;;;;;;;;;;22.80;63.90;;;;;;6235909;22;20279;-92
2022/09/15 08:06:32;;;;;;;;;;;22.90;63.70;;;;;;6237869;23;20349;-86
2022/09/15 08:08:57;;;;;;;;;;;23.00;63.60;;;;;;6238235;22;19911;-89
2022/09/15 08:11:24;;;;;;;;;;;23.00;63.60;;;;;;6239065;23;19914;-86
2022/09/15 08:13:51;;;;;;;;;;;23.10;63.70;;;;;;6237225;22;20596;-87
2022/09/15 08:16:21;;;;;;;;;;;23.20;63.90;;;;;;6240176;22;19962;-89
2022/09/15 08:18:47;;;;;;;;;;;23.30;63.90;;;;;;6238191;22;19916;-89
2022/09/15 08:21:14;;;;;;;;;;;23.50;64.00;;;;;;6240051;22;19919;-89
2022/09/15 08:23:40;;;;;;;;;;;23.60;64.20;;;;;;6240022;22;20324;-89
2022/09/15 08:26:06;;;;;;;;;;;23.80;64.30;;;;;;6240145;23;19912;-90
2022/09/15 08:28:31;;;;;;;;;;;23.80;64.10;;;;;;6240389;22;20355;-90
2022/09/15 08:31:02;;;;;;;;;;;24.00;64.30;;;;;;6237211;23;19937;-89
2022/09/15 08:33:27;;;;;;;;;;;24.20;64.20;;;;;;6239073;22;19912;-89
2022/09/15 08:35:53;;;;;;;;;;;24.20;64.20;;;;;;6237466;23;19911;-87
2022/09/15 08:38:19;;;;;;;;;;;24.40;64.10;;;;;;6235877;22;19903;-87
2022/09/15 08:40:45;;;;;;;;;;;24.60;63.80;;;;;;6239555;23;20457;-90
2022/09/15 08:43:16;;;;;;;;;;;24.70;63.90;;;;;;6237138;22;20260;-89
2022/09/15 08:45:53;;;;;;;;;;;24.90;64.30;;;;;;6240503;22;20747;-92
2022/09/15 08:48:23;;;;;;;;;;;25.20;64.50;;;;;;6240131;22;20340;-89
2022/09/15 08:50:51;;;;;;;;;;;25.30;64.50;;;;;;6238078;23;20406;-90
2022/09/15 08:53:34;;;;;;;;;;;25.50;64.90;;;;;;6239183;22;19970;-90
2022/09/15 08:56:03;;;;;;;;;;;25.80;65.50;;;;;;6238038;23;19919;-92
2022/09/15 08:58:30;;;;;;;;;;;26.20;66.60;;;;;;6240450;22;19937;-88
2022/09/15 09:00:56;;;;;;;;;;;26.70;66.70;;;;;;6239559;22;19911;-87
2022/09/15 09:03:40;;;;;;;;;;;27.10;67.40;;;;;;6237882;22;19919;-90
2022/09/15 09:06:21;;;;;;;;;;;27.50;67.00;;;;;;6237544;23;19962;-89
2022/09/15 09:08:52;;;;;;;;;;;27.80;66.20;;;;;;6238010;22;19915;-87
2022/09/15 09:11:36;;;;;;;;;;;27.80;65.40;;;;;;6237241;23;19933;-89
2022/09/15 09:14:04;;;;;;;;;;;27.90;64.60;;;;;;6237904;22;20350;-89
2022/09/15 09:16:33;;;;;;;;;;;28.20;65.70;;;;;;6235988;23;19970;-90
2022/09/15 09:19:18;;;;;;;;;;;28.40;65.70;;;;;;6237506;22;19974;-89
2022/09/15 09:21:47;;;;;;;;;;;28.60;65.30;;;;;;6237968;22;19915;-89
2022/09/15 09:24:14;;;;;;;;;;;28.70;64.60;;;;;;6262607;22;19912;-91
2022/09/15 09:26:39;;;;;;;;;;;28.80;64.60;;;;;;6236154;23;19911;-89
2022/09/15 09:29:15;;;;;;;;;;;29.20;64.90;;;;;;6237690;22;20407;-90
2022/09/15 09:31:41;;;;;;;;;;;29.80;66.80;;;;;;6237264;23;20271;-87
2022/09/15 09:34:16;;;;;;;;;;;30.30;66.00;;;;;;6237426;22;19907;-89
2022/09/15 09:36:42;;;;;;;;;;;30.80;65.20;;;;;;6238149;23;19918;-87
2022/09/15 09:39:12;;;;;;;;;;;31.20;64.80;;;;;;6239005;22;19907;-87
2022/09/15 09:41:39;;;;;;;;;;;31.50;64.30;;;;;;6238883;23;19918;-88
2022/09/15 09:44:08;;;;;;;;;;;32.00;63.80;;;;;;6238181;22;19907;-89
2022/09/15 09:46:33;;;;;;;;;;;32.30;62.60;;;;;;6239421;22;19935;-89
2022/09/15 09:49:19;;;;;;;;;;;32.30;59.60;;;;;;6235545;22;19991;-88
2022/09/15 09:51:51;;;;;;;;;;;32.30;59.20;;;;;;6238626;22;20677;-91
2022/09/15 09:54:19;;;;;;;;;;;32.30;57.80;;;;;;6238635;22;19908;-90
2022/09/15 09:56:49;;;;;;;;;;;32.20;57.10;;;;;;6237065;23;19911;-87
2022/09/15 09:59:37;;;;;;;;;;;32.00;56.10;;;;;;6238064;22;19927;-88
2022/09/15 10:02:19;;;;;;;;;;;31.90;57.20;;;;;;6238811;22;20317;-88
2022/09/15 10:04:49;;;;;;;;;;;31.70;56.80;;;;;;6237049;22;19912;-89
2022/09/15 10:07:16;;;;;;;;;;;31.50;56.50;;;;;;6235764;23;19920;-91
2022/09/15 10:09:50;;;;;;;;;;;31.40;56.50;;;;;;6237570;22;20694;-89
2022/09/15 10:12:21;;;;;;;;;;;31.30;55.50;;;;;;6237221;23;19912;-87
2022/09/15 10:14:50;;;;;;;;;;;31.20;55.10;;;;;;6238327;22;19958;-87
2022/09/15 10:17:19;;;;;;;;;;;31.20;55.30;;;;;;6233682;23;19916;-89
2022/09/15 10:19:46;;;;;;;;;;;31.30;55.60;;;;;;6237594;22;19951;-86
2022/09/15 10:22:31;;;;;;;;;;;31.60;54.60;;;;;;6238410;22;20390;-87
2022/09/15 10:24:57;;;;;;;;;;;31.80;49.40;;;;;;6238164;22;20391;-87
2022/09/15 10:27:30;;;;;;;;;;;32.00;50.40;;;;;;6259324;22;20358;-86
2022/09/15 10:30:11;;;;;;;;;;;32.30;49.70;;;;;;6237168;22;20035;-86
2022/09/15 10:32:37;;;;;;;;;;;32.40;47.70;;;;;;6237120;23;19907;-89
2022/09/15 10:35:10;;;;;;;;;;;32.40;49.70;;;;;;6237183;22;19920;-88
2022/09/15 10:37:42;;;;;;;;;;;32.30;47.70;;;;;;6235852;23;19915;-86
2022/09/15 10:40:34;;;;;;;;;;;32.30;47.20;;;;;;6236433;23;19915;-89
2022/09/15 10:42:59;;;;;;;;;;;32.50;46.00;;;;;;6202326;22;20316;-89
2022/09/15 10:45:28;;;;;;;;;;;32.90;45.50;;;;;;6239248;22;19986;-88
2022/09/15 10:48:02;;;;;;;;;;;33.50;45.00;;;;;;6238256;22;19915;-93
2022/09/15 10:50:29;;;;;;;;;;;34.10;42.50;;;;;;6239156;23;20730;-86
2022/09/15 10:53:03;;;;;;;;;;;34.30;41.40;;;;;;6236583;22;19946;-89
2022/09/15 10:55:40;;;;;;;;;;;34.20;40.60;;;;;;6242685;22;20331;-89
2022/09/15 10:58:20;;;;;;;;;;;34.00;40.30;;;;;;6239820;22;19915;-90
2022/09/15 11:00:58;;;;;;;;;;;33.80;40.60;;;;;;6240980;22;19912;-93
2022/09/15 11:03:40;;;;;;;;;;;33.60;39.50;;;;;;6238333;22;19955;-86
2022/09/15 11:06:08;;;;;;;;;;;33.40;38.80;;;;;;6239871;22;19923;-91
2022/09/15 11:08:39;;;;;;;;;;;33.40;37.10;;;;;;6238365;22;19959;-89
2022/09/15 11:11:11;;;;;;;;;;;33.50;37.60;;;;;;6239400;22;19999;-89
2022/09/15 11:13:46;;;;;;;;;;;33.40;38.40;;;;;;6238842;22;19910;-91
2022/09/15 11:16:14;;;;;;;;;;;33.30;36.90;;;;;;6236887;23;19912;-85
2022/09/15 11:18:50;;;;;;;;;;;33.00;37.00;;;;;;6236407;22;20386;-89
2022/09/15 11:21:18;;;;;;;;;;;32.80;37.00;;;;;;6239059;22;19919;-88
2022/09/15 11:23:47;;;;;;;;;;;33.10;36.30;;;;;;6239125;22;20327;-86
2022/09/15 11:26:15;;;;;;;;;;;33.60;34.50;;;;;;6238535;23;19942;-89
2022/09/15 11:28:56;;;;;;;;;;;34.00;33.00;;;;;;6238932;22;20418;-89
2022/09/15 11:31:26;;;;;;;;;;;34.50;32.50;;;;;;6239344;23;19908;-88
2022/09/15 11:33:58;;;;;;;;;;;35.00;32.40;;;;;;6241666;22;19911;-87
2022/09/15 11:36:39;;;;;;;;;;;35.10;30.20;;;;;;6239328;22;19943;-92
2022/09/15 11:39:04;;;;;;;;;;;35.10;30.70;;;;;;6238703;22;19912;-92
2022/09/15 11:41:55;;;;;;;;;;;35.30;28.90;;;;;;6239388;23;19912;-89
2022/09/15 11:44:23;;;;;;;;;;;35.60;30.00;;;;;;6237215;22;20339;-91
2022/09/15 11:47:00;;;;;;;;;;;35.80;29.10;;;;;;6241307;23;19955;-92
2022/09/15 11:49:46;;;;;;;;;;;36.00;29.30;;;;;;6242727;22;19939;-89
2022/09/15 11:52:11;;;;;;;;;;;36.30;28.70;;;;;;6241032;23;19966;-87
2022/09/15 11:54:41;;;;;;;;;;;36.60;27.70;;;;;;6240627;22;19912;-88
2022/09/15 11:57:14;;;;;;;;;;;36.40;27.40;;;;;;6240520;23;19918;-88
2022/09/15 11:59:47;;;;;;;;;;;36.30;26.90;;;;;;6238845;22;19911;-89
2022/09/15 12:02:27;;;;;;;;;;;36.50;26.30;;;;;;6239017;23;20634;-89
2022/09/15 12:04:58;;;;;;;;;;;36.90;26.20;;;;;;6241047;22;20351;-89
2022/09/15 12:07:27;;;;;;;;;;;37.30;25.10;;;;;;6237187;23;20382;-86
2022/09/15 12:09:54;;;;;;;;;;;37.50;24.10;;;;;;6241730;22;19951;-89
2022/09/15 12:12:21;;;;;;;;;;;37.80;24.20;;;;;;6244462;22;19911;-87
2022/09/15 12:14:48;;;;;;;;;;;38.00;24.20;;;;;;6239180;22;19918;-87
2022/09/15 12:17:17;;;;;;;;;;;37.40;23.30;;;;;;6240764;22;19915;-87
2022/09/15 12:20:00;;;;;;;;;;;36.60;22.80;;;;;;6241022;22;19919;-88
2022/09/15 12:22:30;;;;;;;;;;;35.90;24.10;;;;;;6240224;23;19954;-88
2022/09/15 12:24:56;;;;;;;;;;;35.70;24.40;;;;;;6241123;22;20231;-92
2022/09/15 12:27:21;;;;;;;;;;;36.00;24.50;;;;;;6239495;23;19965;-87
2022/09/15 12:29:51;;;;;;;;;;;35.80;24.60;;;;;;6242116;22;19908;-87
2022/09/15 12:32:19;;;;;;;;;;;35.60;23.70;;;;;;6242784;22;19993;-89
2022/09/15 12:35:04;;;;;;;;;;;35.30;24.00;;;;;;6239502;22;20290;-89
2022/09/15 12:37:35;;;;;;;;;;;34.80;24.40;;;;;;6239900;23;19922;-89
2022/09/15 12:40:03;;;;;;;;;;;34.20;24.40;;;;;;6243407;22;19986;-88
2022/09/15 12:42:32;;;;;;;;;;;33.70;25.20;;;;;;6247468;22;19962;-87
2022/09/15 12:45:02;;;;;;;;;;;33.20;25.30;;;;;;6243221;22;19931;-87
2022/09/15 12:47:38;;;;;;;;;;;32.70;25.80;;;;;;6241117;23;19923;-88
2022/09/15 12:50:12;;;;;;;;;;;32.40;26.20;;;;;;6242675;22;19950;-88
2022/09/15 12:52:47;;;;;;;;;;;32.10;26.20;;;;;;6244886;23;19939;-88
2022/09/15 12:55:18;;;;;;;;;;;31.80;26.80;;;;;;6244022;23;19915;-91
2022/09/15 12:57:48;;;;;;;;;;;31.60;27.30;;;;;;6242084;22;20391;-92
2022/09/15 13:00:21;;;;;;;;;;;31.60;27.60;;;;;;6240835;23;19999;-89
2022/09/15 13:02:47;;;;;;;;;;;31.60;27.40;;;;;;6241612;22;20350;-90
2022/09/15 13:05:33;;;;;;;;;;;31.50;27.20;;;;;;6241710;22;19939;-88
2022/09/15 13:07:59;;;;;;;;;;;31.40;27.60;;;;;;6243673;22;19923;-88
2022/09/15 13:10:26;;;;;;;;;;;31.40;27.40;;;;;;6244902;22;20348;-86
2022/09/15 13:12:57;;;;;;;;;;;31.60;27.30;;;;;;6244593;22;20315;-91
2022/09/15 13:15:24;;;;;;;;;;;32.10;27.20;;;;;;6245425;22;19911;-92
2022/09/15 13:17:49;;;;;;;;;;;32.50;26.70;;;;;;6243330;22;19915;-90
2022/09/15 13:20:18;;;;;;;;;;;32.80;26.60;;;;;;6241810;23;19924;-89
2022/09/15 13:22:46;;;;;;;;;;;33.20;26.10;;;;;;6244753;22;19919;-92
2022/09/15 13:25:13;;;;;;;;;;;33.30;26.10;;;;;;6242930;23;19907;-87
2022/09/15 13:27:40;;;;;;;;;;;33.10;26.30;;;;;;6243863;23;19993;-88
2022/09/15 13:30:23;;;;;;;;;;;32.90;25.80;;;;;;6245383;22;19907;-93
2022/09/15 13:32:57;;;;;;;;;;;32.60;25.50;;;;;;6245756;22;19958;-87
2022/09/15 13:35:41;;;;;;;;;;;32.10;25.60;;;;;;6244839;22;20579;-87
2022/09/15 13:38:19;;;;;;;;;;;31.60;26.10;;;;;;6241579;22;19916;-88
2022/09/15 13:40:53;;;;;;;;;;;31.10;26.50;;;;;;6244124;23;19911;-91
2022/09/15 13:43:37;;;;;;;;;;;30.70;26.80;;;;;;6243682;22;20655;-86
2022/09/15 13:46:03;;;;;;;;;;;30.30;27.00;;;;;;6238047;23;19990;-87
2022/09/15 13:48:38;;;;;;;;;;;29.90;27.70;;;;;;6238502;22;20328;-88
2022/09/15 13:51:11;;;;;;;;;;;29.70;27.90;;;;;;6240314;22;19908;-90
2022/09/15 13:53:41;;;;;;;;;;;29.30;28.40;;;;;;6242748;22;19916;-91
2022/09/15 13:56:09;;;;;;;;;;;29.10;28.70;;;;;;6239650;22;19908;-88
2022/09/15 13:58:34;;;;;;;;;;;28.80;28.90;;;;;;6239739;22;19907;-89
2022/09/15 14:01:02;;;;;;;;;;;28.60;29.10;;;;;;6237688;23;19958;-87
2022/09/15 14:03:38;;;;;;;;;;;28.30;29.50;;;;;;6240941;22;19915;-89
2022/09/15 14:06:13;;;;;;;;;;;28.10;29.80;;;;;;6240318;22;20740;-86
2022/09/15 14:08:39;;;;;;;;;;;27.80;30.40;;;;;;6241025;22;19923;-88
2022/09/15 14:11:07;;;;;;;;;;;27.60;30.50;;;;;;6239326;23;19914;-89
2022/09/15 14:13:34;;;;;;;;;;;27.40;31.00;;;;;;6238498;22;19922;-91
2022/09/15 14:16:01;;;;;;;;;;;27.30;31.10;;;;;;6239436;23;19903;-86
2022/09/15 14:18:27;;;;;;;;;;;27.40;31.20;;;;;;6237918;22;19915;-87
2022/09/15 14:21:03;;;;;;;;;;;27.50;31.30;;;;;;6240216;22;19962;-87
2022/09/15 14:23:28;;;;;;;;;;;27.70;31.50;;;;;;6239390;22;19923;-88
2022/09/15 14:25:55;;;;;;;;;;;27.80;31.20;;;;;;6237876;23;19982;-87
2022/09/15 14:28:24;;;;;;;;;;;27.80;31.00;;;;;;6240377;22;19927;-86
2022/09/15 14:30:50;;;;;;;;;;;27.90;31.30;;;;;;6238435;22;19907;-86